LFOH/LEH METAR and TAF weather

Enter ICAO airport designator
Station Type Date Time Source
LFOH METAR 2020/07/14 17:00 UTC NOAA

LFOH 141700Z AUTO 32006KT 290V350 9999 BKN007 BKN060 BKN170 17/15 Q1016 BECMG BKN016


Station Type Date Time Source
LFOH Decoded METAR 2020/07/14 17:00 UTC NOAA

La Heve, France (LFOH) 49-31N 000-04E 103M
Jul 14, 2020 - 01:00 PM EDT / 2020.07.14 1700 UTC
Wind: from the NW (320 degrees) at 7 MPH (6 KT) (direction variable):0
Visibility: greater than 7 mile(s):0
Sky conditions: mostly cloudy
Temperature: 62 F (17 C)
Dew Point: 59 F (15 C)
Relative Humidity: 88%
Pressure (altimeter): 30.00 in. Hg (1016 hPa)
ob: LFOH 141700Z AUTO 32006KT 290V350 9999 BKN007 BKN060 BKN170 17/15 Q1016 BECMG BKN016
cycle: 17

Station Type Date Time Source
LFOH TAF 2020/07/14 15:44 UTC NOAA

TAF
AMD LFOH 141536Z 1415/1512 31010KT 9999 BKN008
BECMG 1415/1418 BKN016

Example: see airport list